Satellite Beach, Florida
Current Conditions -  °F | °C
As of 3:58 PM on Wednesday 17 Dec 2014 (Local Time) from KCOF Reporting Station
Clear Clear  
Wind Chill: 67°   Ceiling: Unl
Heat Index: 67°   Visibility: 10mi
Dew Point: 60°   Wind: 6mph
Humidity: 76%   Direction: 70°ENE
Pressure: 30.09"   Gusts: NA
Location:  28.17°N, 80.6°W
Report Text: KCOF 172058Z AUTO 07005KT 10SM CLR 20/15 A3009 RMK AO2 DZB2004E2014 SLP194 P0000 60000 T01960153 56017
Loading
Personal Weather Stations






























Interactive Weather Map New forecast layout! Learn more

10-Day Weather Forecast

Advertisements
Track Severe Weather on mobile